Time;durP1;ratioP1;P1;durP2;ratioP2;P2;SDS_P1;SDS_P2;PMS_P1;PMS_P2;Temp;Humidity;BMP_temperature;BMP_pressure;BME280_temperature;BME280_humidity;BME280_pressure;Samples;Min_cycle;Max_cycle;Signal;HPM_P1;HPM_P2
2022/05/26 00:00:38;;;;;;;1.77;0.60;;;;;;;17.03;68.00;100606.66;5187541;28;20033;-72
2022/05/26 00:03:08;;;;;;;0.90;0.60;;;;;;;17.00;68.82;100617.41;5186381;28;20021;-72
2022/05/26 00:05:39;;;;;;;4.07;0.67;;;;;;;17.00;68.46;100610.31;5189448;28;20339;-73
2022/05/26 00:08:09;;;;;;;2.60;0.73;;;;;;;16.87;68.98;100606.75;5191987;28;20276;-72
2022/05/26 00:10:39;;;;;;;4.73;0.80;;;;;;;16.76;69.63;100604.84;5192228;28;20753;-72
2022/05/26 00:13:09;;;;;;;3.13;0.70;;;;;;;16.85;69.02;100606.00;5192597;28;20895;-73
2022/05/26 00:15:40;;;;;;;3.78;0.90;;;;;;;16.79;70.04;100610.78;5189535;28;20268;-73
2022/05/26 00:18:10;;;;;;;3.20;1.00;;;;;;;16.87;69.51;100606.75;5191002;28;20120;-72
2022/05/26 00:20:40;;;;;;;4.50;0.80;;;;;;;16.85;69.71;100602.50;5188161;28;20276;-73
2022/05/26 00:23:10;;;;;;;3.58;0.65;;;;;;;16.78;70.32;100611.75;5192258;28;20036;-72
2022/05/26 00:25:41;;;;;;;2.40;0.50;;;;;;;16.91;69.75;100602.97;5190369;28;20026;-73
2022/05/26 00:28:11;;;;;;;2.28;0.70;;;;;;;16.74;70.39;100604.91;5191139;28;20056;-72
2022/05/26 00:30:42;;;;;;;3.83;0.65;;;;;;;16.82;70.36;100602.69;5188042;28;20033;-72
2022/05/26 00:33:13;;;;;;;1.88;0.80;;;;;;;16.73;70.81;100603.22;5192031;28;20454;-72
2022/05/26 00:35:43;;;;;;;6.35;0.90;;;;;;;16.62;71.19;100610.97;5188382;28;20487;-73
2022/05/26 00:38:14;;;;;;;2.38;0.80;;;;;;;16.63;70.98;100599.47;5190908;28;20098;-72
2022/05/26 00:40:46;;;;;;;1.77;0.70;;;;;;;16.70;71.25;100606.06;5187879;28;20030;-73
2022/05/26 00:43:16;;;;;;;4.40;0.90;;;;;;;16.70;71.29;100607.88;5192220;28;20029;-72
2022/05/26 00:45:56;;;;;;;4.05;0.50;;;;;;;16.43;72.80;100610.34;5188131;28;20026;-73
2022/05/26 00:48:38;;;;;;;4.65;1.05;;;;;;;16.52;72.45;100616.88;5189868;28;20580;-72
2022/05/26 00:51:11;;;;;;;1.88;0.70;;;;;;;16.47;72.14;100611.88;5191166;28;20100;-72
2022/05/26 00:53:47;;;;;;;2.55;0.95;;;;;;;16.50;72.75;100611.69;5188208;28;20033;-72
2022/05/26 00:56:25;;;;;;;3.50;0.95;;;;;;;16.44;72.81;100609.41;5188867;28;20049;-72
2022/05/26 00:59:18;;;;;;;3.00;0.90;;;;;;;16.41;73.23;100611.38;5189512;28;20025;-73
2022/05/26 01:01:48;;;;;;;4.72;1.00;;;;;;;16.47;73.18;100611.88;5186841;28;20479;-72
2022/05/26 01:04:22;;;;;;;3.38;1.10;;;;;;;16.48;74.06;100618.84;5191206;28;20035;-72
2022/05/26 01:07:00;;;;;;;2.00;1.00;;;;;;;16.35;73.96;100617.03;5188729;28;20021;-72
2022/05/26 01:09:30;;;;;;;2.85;0.95;;;;;;;16.32;74.03;100623.28;5189263;28;20033;-72
2022/05/26 01:12:01;;;;;;;2.85;0.85;;;;;;;16.36;74.05;100619.53;5189882;28;20028;-72
2022/05/26 01:14:34;;;;;;;1.73;0.80;;;;;;;16.32;74.57;100611.84;5189930;28;20549;-72
2022/05/26 01:17:33;;;;;;;2.20;0.98;;;;;;;16.30;75.26;100614.59;5190551;28;20761;-72
2022/05/26 01:20:31;;;;;;;3.35;0.95;;;;;;;16.29;74.94;100610.28;5190673;28;20040;-72
2022/05/26 01:23:24;;;;;;;3.67;0.90;;;;;;;16.27;74.62;100614.78;5190335;28;20080;-73
2022/05/26 01:26:03;;;;;;;5.32;0.98;;;;;;;16.24;75.43;100620.22;5191556;28;20474;-73
2022/05/26 01:28:42;;;;;;;1.65;0.80;;;;;;;16.23;76.12;100618.50;5187583;28;20052;-73
2022/05/26 01:31:50;;;;;;;4.32;1.30;;;;;;;16.23;75.39;100612.41;5190082;28;20037;-72
2022/05/26 01:34:35;;;;;;;2.28;1.10;;;;;;;16.27;75.82;100620.06;5192253;28;20053;-72
2022/05/26 01:37:12;;;;;;;2.60;1.00;;;;;;;16.27;76.03;100620.06;5191177;28;20026;-73
2022/05/26 01:39:50;;;;;;;4.95;1.00;;;;;;;16.34;75.91;100623.16;5191149;28;20506;-72
2022/05/26 01:42:58;;;;;;;3.53;1.23;;;;;;;16.36;76.78;100614.28;5194348;28;20037;-72
2022/05/26 01:45:39;;;;;;;3.08;1.10;;;;;;;16.28;77.40;100620.91;5193055;28;20037;-72
2022/05/26 01:48:20;;;;;;;4.65;0.98;;;;;;;16.27;77.69;100616.56;5193767;28;20037;-72
2022/05/26 01:51:00;;;;;;;3.88;1.40;;;;;;;16.25;78.34;100616.63;5192167;28;20075;-73
2022/05/26 01:53:46;;;;;;;3.72;1.33;;;;;;;16.31;78.10;100616.31;5191579;28;20029;-72
2022/05/26 01:56:29;;;;;;;1.98;1.15;;;;;;;16.32;78.87;100622.41;5195137;28;20427;-73
2022/05/26 01:59:33;;;;;;;2.67;1.20;;;;;;;16.23;79.48;100629.06;5193375;28;20450;-73
2022/05/26 02:02:22;;;;;;;2.55;1.15;;;;;;;16.37;78.66;100630.97;5193489;28;20033;-73
2022/05/26 02:04:57;;;;;;;4.30;1.40;;;;;;;16.38;79.05;100636.13;5192469;28;20029;-72
2022/05/26 02:07:35;;;;;;;2.70;1.40;;;;;;;16.40;78.89;100626.34;5195399;28;20067;-73
2022/05/26 02:10:15;;;;;;;4.45;1.30;;;;;;;16.36;79.37;100626.63;5196979;28;20033;-73
2022/05/26 02:12:56;;;;;;;3.70;1.38;;;;;;;16.19;80.06;100621.44;5205847;28;20087;-73
2022/05/26 02:15:32;;;;;;;9.32;1.83;;;;;;;16.26;80.14;100631.56;5201165;28;20056;-73
2022/05/26 02:18:14;;;;;;;2.78;1.60;;;;;;;16.18;79.92;100625.84;5199117;28;20542;-73
2022/05/26 02:20:52;;;;;;;6.35;1.48;;;;;;;16.13;80.07;100622.63;5196357;28;20037;-73
2022/05/26 02:23:27;;;;;;;3.72;1.60;;;;;;;16.14;80.30;100624.34;5193546;28;20026;-73
2022/05/26 02:26:00;;;;;;;2.15;1.38;;;;;;;16.13;80.54;100622.63;5198263;28;20483;-73
2022/05/26 02:31:24;;;;;;;4.18;1.23;;;;;;;16.24;80.51;100635.22;5193356;28;20068;-73
2022/05/26 02:34:01;;;;;;;2.38;1.50;;;;;;;16.11;80.46;100627.16;5197568;28;20120;-73
2022/05/26 02:36:35;;;;;;;5.55;1.50;;;;;;;16.03;81.84;100632.00;5194694;28;20052;-72
2022/05/26 02:39:05;;;;;;;3.47;1.40;;;;;;;16.06;81.53;100639.72;5189185;28;20447;-73
2022/05/26 02:41:37;;;;;;;3.80;1.60;;;;;;;16.06;81.64;100628.34;5195769;28;20064;-73
2022/05/26 02:44:09;;;;;;;3.83;1.70;;;;;;;16.14;81.43;100632.25;5195788;28;20040;-73
2022/05/26 02:46:53;;;;;;;3.78;1.60;;;;;;;16.15;80.91;100633.09;5192694;28;20514;-72
2022/05/26 02:49:45;;;;;;;7.80;1.95;;;;;;;16.22;81.29;100630.00;5191234;28;20061;-72
2022/05/26 02:52:34;;;;;;;3.50;1.65;;;;;;;16.14;81.58;100628.75;5196513;28;20037;-73
2022/05/26 02:55:29;;;;;;;3.05;1.30;;;;;;;16.09;81.41;100629.03;5198374;28;20022;-72
2022/05/26 02:58:10;;;;;;;4.07;1.60;;;;;;;16.03;82.13;100632.00;5192851;28;20026;-73
2022/05/26 03:01:03;;;;;;;3.63;1.45;;;;;;;16.14;81.26;100628.75;5191786;28;20056;-73
2022/05/26 03:03:40;;;;;;;3.92;1.50;;;;;;;16.02;81.50;100634.75;5211276;28;20044;-73
2022/05/26 03:06:15;;;;;;;3.97;1.70;;;;;;;16.01;82.24;100628.59;5196128;28;20033;-73
2022/05/26 03:08:46;;;;;;;;;;;;;;;16.08;82.11;100622.03;5192323;28;20029;-72
2022/05/26 03:11:23;;;;;;;4.18;1.60;;;;;;;15.97;82.46;100627.09;5189036;28;20337;-73
2022/05/26 03:13:54;;;;;;;5.22;1.50;;;;;;;15.91;82.44;100626.59;5199152;28;20037;-73
2022/05/26 03:16:24;;;;;;;4.88;1.70;;;;;;;15.98;82.47;100625.28;5203573;28;20033;-73
2022/05/26 03:18:56;;;;;;;3.95;1.70;;;;;;;16.06;82.25;100628.34;5204113;28;20028;-73
2022/05/26 03:21:26;;;;;;;3.83;1.60;;;;;;;16.07;81.90;100622.13;5204284;28;20502;-73
2022/05/26 03:23:56;;;;;;;6.28;1.80;;;;;;;16.08;81.98;100624.66;5200098;28;20029;-73
2022/05/26 03:26:27;;;;;;;3.50;1.50;;;;;;;16.12;82.04;100625.34;5196306;28;20330;-71
2022/05/26 03:28:58;;;;;;;3.97;1.80;;;;;;;16.03;82.71;100631.16;5193715;28;20308;-72
2022/05/26 03:31:30;;;;;;;4.13;1.65;;;;;;;16.01;83.10;100630.41;5188060;28;20029;-73
2022/05/26 03:42:27;;;;;;;8.63;1.95;;;;;;;16.19;82.62;100627.56;5190286;28;20049;-73
2022/05/26 03:44:58;;;;;;;2.47;1.73;;;;;;;16.20;82.21;100634.53;5194573;28;20376;-71
2022/05/26 03:47:28;;;;;;;3.28;1.67;;;;;;;16.10;83.07;100630.72;5198045;28;20040;-73
2022/05/26 03:49:59;;;;;;;5.25;1.70;;;;;;;16.03;83.43;100636.44;5190118;28;20045;-73
2022/05/26 03:52:29;;;;;;;3.90;1.70;;;;;;;16.16;83.34;100646.19;5196622;28;20112;-73
2022/05/26 03:54:59;;;;;;;7.30;2.00;;;;;;;16.19;83.42;100645.19;5194239;28;20033;-73
2022/05/26 03:57:31;;;;;;;5.82;2.08;;;;;;;16.19;83.09;100647.81;5200832;28;20279;-73
2022/05/26 04:00:03;;;;;;;3.35;1.60;;;;;;;16.21;82.81;100652.03;5194396;28;20371;-70
2022/05/26 04:02:34;;;;;;;4.25;1.80;;;;;;;16.17;83.08;100661.06;5196201;28;20038;-73
2022/05/26 04:05:06;;;;;;;2.88;1.67;;;;;;;16.24;83.09;100643.94;5183656;28;20119;-72
2022/05/26 04:07:37;;;;;;;2.83;1.58;;;;;;;16.13;83.85;100653.41;5193398;28;20407;-73
2022/05/26 04:10:10;;;;;;;4.63;1.90;;;;;;;16.13;84.26;100646.38;5192410;28;20034;-73
2022/05/26 04:12:44;;;;;;;2.80;1.83;;;;;;;16.19;83.84;100642.53;5191877;28;20041;-73
2022/05/26 04:15:16;;;;;;;5.07;1.90;;;;;;;16.17;83.45;100644.38;5208589;28;20042;-72
2022/05/26 04:17:46;;;;;;;4.20;1.48;;;;;;;16.28;83.25;100653.41;5206607;28;20060;-72
2022/05/26 04:20:19;;;;;;;4.97;1.80;;;;;;;16.22;84.07;100653.75;5194111;28;20037;-72
2022/05/26 04:22:50;;;;;;;4.47;1.70;;;;;;;16.28;84.13;100650.78;5188177;28;20061;-72
2022/05/26 04:25:22;;;;;;;4.35;1.80;;;;;;;16.29;84.44;100649.84;5199616;28;20531;-72
2022/05/26 04:27:55;;;;;;;3.78;1.67;;;;;;;16.32;83.78;100649.66;5202276;28;20029;-73
2022/05/26 04:30:26;;;;;;;4.38;1.90;;;;;;;16.32;84.77;100654.06;5203381;28;20029;-73
2022/05/26 04:32:57;;;;;;;5.00;1.70;;;;;;;16.40;83.49;100647.44;5183321;28;20101;-72
2022/05/26 04:35:27;;;;;;;3.33;1.50;;;;;;;16.34;83.86;100647.78;5193462;28;20033;-74
2022/05/26 04:37:57;;;;;;;3.60;1.35;;;;;;;16.34;84.04;100660.09;5192836;28;20036;-73
2022/05/26 04:40:27;;;;;;;5.23;1.40;;;;;;;16.34;83.95;100655.69;5182989;28;20113;-73
2022/05/26 04:42:58;;;;;;;3.87;1.77;;;;;;;16.30;84.56;100669.13;5183445;28;20765;-72
2022/05/26 04:45:28;;;;;;;3.40;1.70;;;;;;;16.27;84.45;100662.25;5206581;28;20788;-73
2022/05/26 04:47:59;;;;;;;4.45;1.63;;;;;;;16.36;84.58;100674.94;5190630;28;20030;-73
2022/05/26 04:50:29;;;;;;;6.60;2.72;;;;;;;16.36;85.83;100677.59;5196162;28;20328;-73
2022/05/26 04:52:59;;;;;;;5.35;1.80;;;;;;;16.30;88.54;100682.31;5196692;28;20025;-73
2022/05/26 04:55:30;;;;;;;3.63;1.73;;;;;;;16.28;91.84;100674.50;5195616;28;20029;-73
2022/05/26 04:58:00;;;;;;;3.53;1.83;;;;;;;16.25;93.41;100684.38;5181239;28;20360;-73
2022/05/26 05:00:30;;;;;;;4.20;2.10;;;;;;;16.09;94.96;100689.69;5187932;28;20033;-72
2022/05/26 05:03:00;;;;;;;4.32;2.15;;;;;;;15.95;98.30;100688.72;5189537;28;20109;-73
2022/05/26 05:05:31;;;;;;;3.80;2.50;;;;;;;15.81;99.82;100691.28;5193412;28;20040;-73
2022/05/26 05:08:01;;;;;;;4.17;2.77;;;;;;;15.72;100.00;100697.06;5192157;28;20454;-73
2022/05/26 05:10:31;;;;;;;10.00;4.80;;;;;;;15.61;100.00;100710.81;5194804;28;20359;-73
2022/05/26 05:13:02;;;;;;;4.85;2.90;;;;;;;15.67;100.00;100717.56;5196310;28;20030;-73
2022/05/26 05:15:39;;;;;;;4.32;2.70;;;;;;;15.47;100.00;100715.09;5196896;28;20053;-72
2022/05/26 05:18:09;;;;;;;6.85;3.13;;;;;;;15.48;100.00;100720.31;5191825;28;20029;-73
2022/05/26 05:20:40;;;;;;;5.20;3.15;;;;;;;15.30;100.00;100731.81;5195745;28;20559;-73
2022/05/26 05:23:14;;;;;;;4.97;3.10;;;;;;;15.40;100.00;100721.66;5191876;28;20410;-72
2022/05/26 05:25:48;;;;;;;5.72;3.85;;;;;;;15.30;100.00;100737.09;5193854;28;20050;-73
2022/05/26 05:28:25;;;;;;;5.22;3.78;;;;;;;15.32;100.00;100737.00;5193835;28;20505;-73
2022/05/26 05:31:11;;;;;;;8.65;4.38;;;;;;;15.36;100.00;100741.19;5193395;28;20440;-73
2022/05/26 05:33:50;;;;;;;5.40;4.00;;;;;;;15.15;100.00;100751.00;5192012;28;20188;-73
2022/05/26 05:36:27;;;;;;;8.77;4.40;;;;;;;15.08;100.00;100747.00;5195339;28;20033;-73
2022/05/26 05:38:59;;;;;;;5.38;4.30;;;;;;;15.15;100.00;100753.63;5193682;28;20029;-74
2022/05/26 05:41:32;;;;;;;7.30;5.15;;;;;;;15.08;100.00;100749.63;5194647;28;20053;-73
2022/05/26 05:44:04;;;;;;;6.43;4.68;;;;;;;14.97;100.00;100751.06;5201114;28;20025;-73
2022/05/26 05:46:34;;;;;;;7.85;4.78;;;;;;;15.07;100.00;100755.81;5192652;28;20034;-73
2022/05/26 05:49:04;;;;;;;7.82;5.25;;;;;;;15.13;100.00;100757.28;5196912;28;20026;-73
2022/05/26 05:51:35;;;;;;;8.97;5.07;;;;;;;15.12;100.00;100751.16;5188476;28;20025;-73
2022/05/26 05:54:06;;;;;;;6.13;4.10;;;;;;;15.67;100.00;100739.47;5193318;28;20284;-74
2022/05/26 05:56:36;;;;;;;6.83;3.43;;;;;;;17.30;98.87;100742.34;5196247;28;20404;-71
2022/05/26 05:59:06;;;;;;;4.93;3.10;;;;;;;18.33;94.51;100742.91;5192373;28;20604;-73
2022/05/26 06:01:36;;;;;;;4.37;2.50;;;;;;;18.51;92.10;100754.94;5192680;28;20088;-73
2022/05/26 06:04:07;;;;;;;4.20;2.30;;;;;;;17.92;94.73;100757.84;5188657;28;20276;-73
2022/05/26 06:06:39;;;;;;;3.53;2.40;;;;;;;17.37;97.00;100770.13;5195525;28;20029;-72
2022/05/26 06:09:13;;;;;;;5.72;2.60;;;;;;;17.42;99.21;100762.75;5195301;28;20025;-72
2022/05/26 06:11:45;;;;;;;4.82;2.72;;;;;;;17.06;100.00;100767.56;5201648;28;20399;-72
2022/05/26 06:14:16;;;;;;;5.93;2.90;;;;;;;16.81;100.00;100772.59;5203690;28;20029;-73
2022/05/26 06:16:46;;;;;;;4.57;2.72;;;;;;;16.91;100.00;100779.00;5191662;28;20471;-73
2022/05/26 06:19:16;;;;;;;5.63;3.30;;;;;;;16.73;99.85;100773.97;5199991;28;20033;-73
2022/05/26 06:21:46;;;;;;;5.57;3.27;;;;;;;16.79;100.00;100777.09;5192731;28;20030;-73
2022/05/26 06:24:22;;;;;;;6.80;3.47;;;;;;;16.77;100.00;100773.72;5199224;28;20272;-73
2022/05/26 06:26:52;;;;;;;5.00;3.85;;;;;;;16.65;100.00;100778.81;5189897;28;20273;-73
2022/05/26 06:37:54;;;;;;;7.95;4.85;;;;;;;16.98;100.00;100764.53;5192176;28;20043;-73
2022/05/26 06:40:24;;;;;;;7.38;4.57;;;;;;;17.07;100.00;100766.63;5194841;28;20108;-73
2022/05/26 06:42:55;;;;;;;6.03;4.30;;;;;;;16.85;100.00;100768.81;5200377;28;20060;-72
2022/05/26 06:45:25;;;;;;;6.97;4.50;;;;;;;16.97;100.00;100768.94;5198886;28;20283;-73
2022/05/26 06:47:56;;;;;;;6.78;4.10;;;;;;;17.21;100.00;100774.59;5193555;28;20116;-73
2022/05/26 06:50:26;;;;;;;7.57;4.35;;;;;;;17.49;98.25;100782.59;5193178;28;20029;-73
2022/05/26 06:52:57;;;;;;;7.20;4.28;;;;;;;17.79;96.65;100784.22;5194501;28;20030;-73
2022/05/26 06:55:27;;;;;;;6.80;4.22;;;;;;;18.31;94.27;100785.31;5194747;28;20120;-73
2022/05/26 06:57:57;;;;;;;5.85;3.97;;;;;;;18.70;92.38;100788.03;5199509;28;20021;-73
2022/05/26 07:00:28;;;;;;;7.22;4.00;;;;;;;19.55;88.44;100784.00;5205074;28;20029;-73
2022/05/26 07:02:58;;;;;;;9.47;3.90;;;;;;;19.62;87.41;100778.19;5205597;28;20441;-72
2022/05/26 07:05:28;;;;;;;8.10;3.73;;;;;;;20.18;84.71;100788.34;5190997;28;20304;-72
2022/05/26 07:07:58;;;;;;;6.00;3.25;;;;;;;20.40;83.70;100787.63;5196036;28;20268;-72
2022/05/26 07:10:30;;;;;;;4.10;2.70;;;;;;;20.70;81.17;100792.41;5193223;28;20391;-73
2022/05/26 07:13:01;;;;;;;3.33;2.33;;;;;;;20.48;80.06;100793.25;5202983;28;20265;-73
2022/05/26 07:15:33;;;;;;;5.32;2.42;;;;;;;20.72;80.47;100793.13;5203369;28;20021;-73
2022/05/26 07:18:05;;;;;;;4.60;2.17;;;;;;;21.29;78.72;100802.13;5199983;28;20037;-73
2022/05/26 07:20:39;;;;;;;3.97;2.30;;;;;;;21.19;77.66;100801.13;5192782;28;20689;-73
2022/05/26 07:23:10;;;;;;;4.28;2.38;;;;;;;20.56;80.12;100801.50;5196541;28;20058;-72
2022/05/26 07:25:41;;;;;;;3.90;2.10;;;;;;;21.93;75.44;100800.69;5198424;28;20029;-73
2022/05/26 07:28:14;;;;;;;3.25;1.90;;;;;;;21.65;76.65;100817.09;5192379;28;20475;-73
2022/05/26 07:30:45;;;;;;;4.85;2.08;;;;;;;21.37;77.92;100817.50;5196972;28;20471;-73
2022/05/26 07:33:15;;;;;;;4.30;2.17;;;;;;;21.05;81.23;100824.41;5196440;28;20028;-73
2022/05/26 07:35:46;;;;;;;4.25;2.45;;;;;;;21.57;76.53;100816.81;5197902;28;20308;-73
2022/05/26 07:41:17;;;;;;;5.38;2.42;;;;;;;21.94;74.56;100819.19;5197295;28;20040;-73
2022/05/26 07:43:52;;;;;;;4.55;2.35;;;;;;;21.52;75.05;100813.66;5200407;28;20037;-73
2022/05/26 07:46:24;;;;;;;5.53;3.10;;;;;;;21.49;77.08;100824.53;5201122;28;20471;-73
2022/05/26 07:48:54;;;;;;;5.03;2.92;;;;;;;21.87;76.01;100819.78;5195761;28;20487;-72
2022/05/26 07:51:25;;;;;;;5.93;3.20;;;;;;;20.62;78.76;100835.59;5194518;28;20327;-73
2022/05/26 07:53:55;;;;;;;6.00;3.53;;;;;;;20.08;81.92;100842.16;5197476;28;20025;-74
2022/05/26 07:56:31;;;;;;;5.85;3.30;;;;;;;19.90;82.63;100843.41;5202343;28;20144;-73
2022/05/26 07:59:01;;;;;;;7.18;3.50;;;;;;;19.41;82.21;100848.59;5194081;28;20096;-73
2022/05/26 08:01:32;;;;;;;6.17;3.10;;;;;;;19.08;82.09;100845.50;5194895;28;20487;-73
2022/05/26 08:04:05;;;;;;;6.97;2.95;;;;;;;19.22;82.29;100840.19;5199815;28;20359;-73
2022/05/26 08:06:36;;;;;;;5.32;2.83;;;;;;;19.33;82.24;100840.31;5196532;28;20097;-71
2022/05/26 08:09:06;;;;;;;5.25;2.65;;;;;;;18.92;83.20;100847.47;5190908;28;20124;-72
2022/05/26 08:11:36;;;;;;;7.13;2.70;;;;;;;18.98;84.75;100844.44;5190100;28;20021;-74
2022/05/26 08:14:06;;;;;;;8.87;3.23;;;;;;;18.42;84.78;100849.03;5201994;28;20268;-73
2022/05/26 08:16:38;;;;;;;7.90;3.10;;;;;;;18.70;83.26;100848.13;5196588;28;20283;-73
2022/05/26 08:19:09;;;;;;;6.00;3.00;;;;;;;18.83;82.00;100849.84;5195366;28;20387;-73
2022/05/26 08:21:39;;;;;;;8.20;2.58;;;;;;;19.69;79.38;100851.09;5190861;28;20026;-74
2022/05/26 08:24:09;;;;;;;8.38;2.60;;;;;;;19.22;80.02;100853.44;5193186;28;20419;-73
2022/05/26 08:26:40;;;;;;;5.72;2.45;;;;;;;18.99;81.08;100851.44;5198934;28;20022;-74
2022/05/26 08:29:10;;;;;;;5.78;2.67;;;;;;;18.77;82.42;100856.41;5197391;28;20100;-73
2022/05/26 08:31:40;;;;;;;5.13;2.60;;;;;;;19.81;79.72;100852.88;5201532;28;20533;-74
2022/05/26 08:34:11;;;;;;;5.40;2.47;;;;;;;21.33;74.75;100853.25;5198776;28;20831;-72
2022/05/26 08:36:41;;;;;;;7.38;2.78;;;;;;;21.85;71.37;100845.69;5188767;28;20100;-74
2022/05/26 08:39:13;;;;;;;4.43;2.00;;;;;;;22.38;72.01;100847.63;5196291;28;20037;-74
2022/05/26 08:41:48;;;;;;;3.50;2.00;;;;;;;22.11;70.64;100850.66;5203641;28;20300;-74
2022/05/26 08:44:34;;;;;;;4.40;2.50;;;;;;;20.83;74.71;100861.44;5211292;28;20034;-74
2022/05/26 08:47:10;;;;;;;5.65;2.70;;;;;;;19.87;78.12;100859.56;5211826;28;20022;-74
2022/05/26 08:49:42;;;;;;;5.25;2.40;;;;;;;19.10;79.85;100859.50;5194346;28;20026;-74
2022/05/26 08:52:14;;;;;;;5.47;2.65;;;;;;;18.72;81.82;100873.53;5196289;28;20037;-73
2022/05/26 08:54:51;;;;;;;9.05;3.00;;;;;;;18.49;81.96;100865.38;5196287;28;20096;-73
2022/05/26 08:57:26;;;;;;;6.70;3.03;;;;;;;18.46;84.16;100876.13;5198668;28;20022;-73
2022/05/26 08:59:57;;;;;;;5.80;2.80;;;;;;;18.16;84.40;100872.75;5192381;28;20040;-73
2022/05/26 09:02:36;;;;;;;6.15;2.90;;;;;;;18.12;85.96;100887.06;5205628;28;20029;-73
2022/05/26 09:05:14;;;;;;;7.50;3.28;;;;;;;17.99;87.17;100888.78;5196629;28;20029;-73
2022/05/26 09:13:58;;;;;;;8.73;2.80;;;;;;;18.17;87.07;100890.31;5204764;28;20030;-74
2022/05/26 09:16:32;;;;;;;8.38;3.00;;;;;;;18.28;87.72;100904.63;5233092;28;20021;-74
2022/05/26 09:19:15;;;;;;;7.32;3.05;;;;;;;18.92;84.13;100903.09;5198410;28;20037;-73
2022/05/26 09:21:50;;;;;;;9.50;2.83;;;;;;;20.87;78.07;100892.19;5190818;28;20483;-74
2022/05/26 09:24:33;;;;;;;6.90;2.58;;;;;;;20.25;76.90;100893.13;5199792;28;20025;-74
2022/05/26 09:27:23;;;;;;;8.10;2.78;;;;;;;19.76;77.70;100912.53;5197060;28;20034;-73
2022/05/26 09:29:54;;;;;;;5.82;2.47;;;;;;;19.55;77.94;100914.81;5187709;28;20284;-73
2022/05/26 09:32:30;;;;;;;6.40;2.63;;;;;;;19.39;78.93;100926.53;5198391;28;20022;-74
2022/05/26 09:35:15;;;;;;;7.30;2.70;;;;;;;19.87;78.05;100916.16;5204743;28;20025;-74
2022/05/26 09:37:48;;;;;;;5.72;2.55;;;;;;;22.45;72.21;100912.81;5194273;28;20034;-75
2022/05/26 09:40:26;;;;;;;7.50;2.58;;;;;;;23.39;68.55;100911.19;5194323;28;20030;-74
2022/05/26 09:43:02;;;;;;;6.53;2.70;;;;;;;22.63;66.15;100911.38;5192525;28;20112;-74
2022/05/26 09:45:41;;;;;;;6.18;2.40;;;;;;;21.67;69.11;100910.97;5205236;28;20022;-74
2022/05/26 09:48:18;;;;;;;7.05;2.40;;;;;;;21.65;70.91;100919.06;5197637;28;20033;-73
2022/05/26 09:50:52;;;;;;;5.18;2.17;;;;;;;21.88;69.52;100926.16;5186204;28;20069;-73
2022/05/26 09:53:33;;;;;;;5.27;1.90;;;;;;;21.77;68.78;100919.94;5196751;28;20061;-73
2022/05/26 09:56:03;;;;;;;3.80;1.70;;;;;;;21.40;69.62;100910.34;5191139;28;20117;-74
2022/05/26 09:58:37;;;;;;;5.55;1.90;;;;;;;21.81;70.65;100905.44;5197737;28;20129;-74
2022/05/26 10:01:11;;;;;;;4.13;1.80;;;;;;;22.75;67.28;100917.41;5192841;28;20609;-74
2022/05/26 10:04:18;;;;;;;5.60;1.50;;;;;;;23.59;63.78;100905.06;5195428;28;20064;-74
2022/05/26 10:06:58;;;;;;;3.35;1.45;;;;;;;23.95;62.43;100910.00;5195960;28;20518;-74
2022/05/26 10:09:53;;;;;;;3.97;1.52;;;;;;;22.56;63.68;100924.31;5194977;28;20033;-74
2022/05/26 10:12:26;;;;;;;5.65;1.20;;;;;;;21.41;65.72;100918.22;5198934;28;20048;-74
2022/05/26 10:15:08;;;;;;;3.50;1.30;;;;;;;20.71;67.82;100926.94;5199089;28;20107;-74
2022/05/26 10:17:57;;;;;;;6.55;1.80;;;;;;;20.66;69.18;100933.53;5195084;28;20032;-74
2022/05/26 10:20:55;;;;;;;5.47;1.48;;;;;;;21.29;67.88;100931.56;5201961;28;20022;-74
2022/05/26 10:23:41;;;;;;;3.65;1.30;;;;;;;21.95;68.22;100929.19;5195437;28;20052;-74
2022/05/26 10:26:15;;;;;;;5.30;1.52;;;;;;;21.53;68.01;100927.94;5197071;28;20034;-73
2022/05/26 10:29:14;;;;;;;5.60;1.40;;;;;;;21.15;67.67;100942.38;5199102;28;20050;-73
2022/05/26 10:32:05;;;;;;;4.53;1.40;;;;;;;20.81;68.53;100943.94;5193532;28;20052;-74
2022/05/26 10:35:09;;;;;;;5.30;1.50;;;;;;;20.50;70.85;100953.34;5195554;28;20395;-74
2022/05/26 10:38:04;;;;;;;4.32;1.52;;;;;;;20.59;68.59;100947.38;5189373;28;20029;-74
2022/05/26 10:40:54;;;;;;;4.63;1.48;;;;;;;20.76;69.57;100939.91;5199013;28;20036;-74
2022/05/26 10:44:03;;;;;;;4.10;1.30;;;;;;;21.32;67.67;100945.50;5189405;28;20534;-74
2022/05/26 10:46:40;;;;;;;6.35;1.75;;;;;;;20.88;67.67;100944.38;5133884;28;20616;-73
2022/05/26 10:49:17;;;;;;;8.98;3.55;;;;;;;20.66;69.51;100952.13;5140261;28;20086;-75
2022/05/26 10:52:00;;;;;;;7.53;2.63;;;;;;;20.64;69.43;100953.22;5180478;28;20036;-73
2022/05/26 10:54:39;;;;;;;5.50;1.65;;;;;;;20.26;68.16;100955.06;5199548;28;20033;-72
2022/05/26 10:57:22;;;;;;;4.75;1.50;;;;;;;19.81;68.59;100953.69;5192469;28;20045;-71
2022/05/26 11:00:05;;;;;;;5.13;1.63;;;;;;;19.70;69.94;100956.22;5189845;28;20025;-73
2022/05/26 11:02:36;;;;;;;5.47;1.73;;;;;;;20.04;70.34;100965.44;5211728;28;20075;-75
2022/05/26 11:05:12;;;;;;;7.97;1.70;;;;;;;20.52;69.52;100946.97;5195393;28;20026;-74
2022/05/26 11:07:49;;;;;;;5.15;1.65;;;;;;;20.76;67.51;100950.53;5192386;28;20022;-75
2022/05/26 11:10:31;;;;;;;3.55;1.30;;;;;;;21.50;66.57;100938.81;5189193;28;20672;-74
2022/05/26 11:13:19;;;;;;;5.40;1.73;;;;;;;22.06;65.12;100931.88;5198564;28;20491;-74
2022/05/26 11:19:14;;;;;;;3.15;1.25;;;;;;;21.20;63.72;100935.75;5198856;28;20095;-74
2022/05/26 11:21:44;;;;;;;7.28;1.35;;;;;;;20.90;64.72;100943.28;5192789;28;20030;-74
2022/05/26 11:24:15;;;;;;;4.25;1.40;;;;;;;20.55;64.94;100941.44;5211822;28;20072;-74
2022/05/26 11:26:53;;;;;;;6.07;1.50;;;;;;;20.11;65.68;100946.31;5197687;28;20021;-74
2022/05/26 11:29:39;;;;;;;4.80;1.30;;;;;;;20.20;66.79;100958.13;5188506;28;20034;-74
2022/05/26 11:38:03;;;;;;;4.18;1.23;;;;;;;21.68;66.35;100945.44;5187968;28;20095;-74
2022/05/26 11:40:42;;;;;;;4.53;1.33;;;;;;;21.70;66.64;100946.19;5191596;28;20037;-75
2022/05/26 11:43:23;;;;;;;5.40;1.20;;;;;;;21.50;63.88;100943.28;5188210;28;20034;-74
2022/05/26 11:45:55;;;;;;;3.75;1.08;;;;;;;21.17;63.49;100949.28;5203969;28;20449;-74
2022/05/26 11:48:31;;;;;;;4.60;1.17;;;;;;;20.67;64.45;100952.03;5199470;28;20588;-74
2022/05/26 11:51:03;;;;;;;6.18;1.60;;;;;;;20.35;65.32;100955.28;5197251;28;20033;-74
2022/05/26 11:53:36;;;;;;;6.25;1.92;;;;;;;20.73;65.97;100956.06;5201960;28;20049;-74
2022/05/26 11:56:25;;;;;;;5.57;1.40;;;;;;;20.83;65.24;100946.47;5198842;28;20053;-72
2022/05/26 11:59:32;;;;;;;4.82;1.50;;;;;;;21.31;65.19;100940.28;5200639;28;20485;-74
2022/05/26 12:02:08;;;;;;;7.25;1.50;;;;;;;21.68;66.24;100942.78;5196368;28;20034;-74
2022/05/26 12:04:41;;;;;;;4.88;1.20;;;;;;;21.47;65.57;100933.72;5186974;28;20041;-75
2022/05/26 12:07:15;;;;;;;5.28;1.67;;;;;;;20.91;64.58;100945.00;5197814;28;20475;-73
2022/05/26 12:09:52;;;;;;;4.65;1.48;;;;;;;20.74;64.43;100947.97;5200160;28;20029;-74
2022/05/26 12:12:22;;;;;;;11.07;4.43;;;;;;;20.62;65.59;100950.66;5188798;28;20526;-74
2022/05/26 12:14:52;;;;;;;8.50;3.60;;;;;;;20.64;65.93;100958.53;5196818;28;20037;-74
2022/05/26 12:17:45;;;;;;;9.05;2.30;;;;;;;20.70;65.71;100949.16;5186302;28;20060;-74
2022/05/26 12:20:15;;;;;;;9.27;3.47;;;;;;;21.06;65.54;100956.34;5191538;28;20395;-73
2022/05/26 12:22:51;;;;;;;8.43;3.10;;;;;;;20.90;66.80;100953.94;5198008;28;20040;-73
2022/05/26 12:25:25;;;;;;;9.50;3.03;;;;;;;20.87;65.66;100953.31;5203213;28;20513;-74
2022/05/26 12:27:55;;;;;;;8.25;3.70;;;;;;;20.88;66.83;100947.03;5195752;28;20053;-74
2022/05/26 12:30:33;;;;;;;7.20;2.60;;;;;;;20.67;65.97;100948.53;5199520;28;20034;-74
2022/05/26 12:33:22;;;;;;;7.88;2.63;;;;;;;20.42;67.14;100943.25;5184286;28;20483;-74
2022/05/26 12:35:55;;;;;;;7.05;2.08;;;;;;;20.52;67.20;100935.50;5202598;28;20031;-75
2022/05/26 12:38:53;;;;;;;7.03;1.95;;;;;;;20.34;66.53;100942.94;5197367;28;20040;-74
2022/05/26 12:41:46;;;;;;;5.82;1.67;;;;;;;20.13;67.02;100933.81;5205788;28;20033;-74